Time;durP1;ratioP1;P1;durP2;ratioP2;P2;SDS_P1;SDS_P2;PMS_P1;PMS_P2;Temp;Humidity;BMP_temperature;BMP_pressure;BME280_temperature;BME280_humidity;BME280_pressure;Samples;Min_cycle;Max_cycle;Signal;HPM_P1;HPM_P2
2023/01/04 00:01:23;;;;;;;11.20;10.07;;;4.30;1.00;;;;;;5013097;28;20239;-79
2023/01/04 00:03:50;;;;;;;12.70;11.50;;;4.30;1.00;;;;;;5013010;28;20317;-79
2023/01/04 00:06:24;;;;;;;12.85;11.32;;;4.20;1.00;;;;;;5018409;28;20291;-82
2023/01/04 00:08:51;;;;;;;12.30;10.68;;;4.20;1.00;;;;;;5021589;28;20239;-80
2023/01/04 00:11:23;;;;;;;11.50;10.32;;;4.20;1.00;;;;;;5019838;28;20227;-81
2023/01/04 00:13:52;;;;;;;11.52;10.02;;;4.20;1.00;;;;;;5001715;28;20222;-85
2023/01/04 00:16:24;;;;;;;13.38;11.18;;;4.20;1.00;;;;;;5018023;28;20242;-81
2023/01/04 00:18:52;;;;;;;12.27;10.63;;;4.10;1.00;;;;;;5017842;28;20274;-82
2023/01/04 00:21:28;;;;;;;9.85;8.85;;;4.00;1.00;;;;;;5028614;28;20245;-81
2023/01/04 00:24:02;;;;;;;10.93;9.40;;;4.10;1.00;;;;;;5020578;28;20238;-82
2023/01/04 00:26:33;;;;;;;11.98;10.55;;;4.10;1.00;;;;;;5020897;28;21035;-80
2023/01/04 00:29:06;;;;;;;12.07;9.60;;;4.00;1.00;;;;;;5021786;28;20219;-82
2023/01/04 00:31:34;;;;;;;9.73;8.80;;;4.00;1.00;;;;;;5017934;28;21159;-82
2023/01/04 00:34:03;;;;;;;11.80;9.85;;;4.00;1.00;;;;;;5019464;28;20242;-84
2023/01/04 00:36:35;;;;;;;10.10;9.13;;;4.00;1.00;;;;;;5020349;28;20222;-82
2023/01/04 00:39:13;;;;;;;9.75;8.85;;;4.00;1.00;;;;;;5027692;28;21141;-85
2023/01/04 00:41:43;;;;;;;11.25;10.02;;;4.00;1.00;;;;;;5023941;28;21235;-83
2023/01/04 00:44:13;;;;;;;9.57;8.63;;;3.90;1.00;;;;;;5018796;28;20295;-86
2023/01/04 00:46:41;;;;;;;10.27;9.02;;;4.00;1.00;;;;;;5023343;28;20245;-88
2023/01/04 00:49:12;;;;;;;11.35;9.07;;;3.90;1.00;;;;;;5022506;28;20258;-85
2023/01/04 00:51:42;;;;;;;11.52;9.73;;;3.90;1.00;;;;;;5026381;28;20260;-82
2023/01/04 00:54:16;;;;;;;9.50;8.50;;;4.00;1.00;;;;;;5015401;28;20302;-81
2023/01/04 00:56:50;;;;;;;11.15;9.00;;;3.90;1.00;;;;;;5021436;28;20243;-80
2023/01/04 00:59:20;;;;;;;10.40;9.30;;;4.00;1.00;;;;;;5004436;28;20239;-82
2023/01/04 01:01:54;;;;;;;9.75;8.20;;;4.00;1.00;;;;;;5022837;28;20351;-85
2023/01/04 01:04:23;;;;;;;10.73;9.68;;;4.00;1.00;;;;;;5023873;28;20323;-86
2023/01/04 01:06:53;;;;;;;10.63;8.20;;;4.00;1.00;;;;;;5021951;28;20242;-83
2023/01/04 01:09:22;;;;;;;10.07;8.95;;;4.00;1.00;;;;;;5023314;28;20241;-81
2023/01/04 01:11:49;;;;;;;9.77;7.80;;;4.00;1.00;;;;;;5019709;28;20277;-82
2023/01/04 01:14:26;;;;;;;10.40;8.27;;;4.00;1.00;;;;;;5018775;28;20221;-82
2023/01/04 01:16:53;;;;;;;9.93;8.02;;;4.10;1.00;;;;;;5020355;28;20750;-83
2023/01/04 01:19:25;;;;;;;10.02;8.73;;;4.20;1.00;;;;;;5015449;28;20247;-80
2023/01/04 01:21:55;;;;;;;10.07;8.95;;;4.20;1.00;;;;;;5014344;28;20215;-80
2023/01/04 01:24:22;;;;;;;8.73;7.88;;;4.20;1.00;;;;;;5016784;28;20281;-82
2023/01/04 01:26:53;;;;;;;11.05;9.23;;;4.20;1.00;;;;;;5023365;28;20239;-82
2023/01/04 01:29:21;;;;;;;10.85;9.15;;;4.30;1.00;;;;;;5023904;28;20238;-80
2023/01/04 01:31:48;;;;;;;9.52;8.52;;;4.30;1.00;;;;;;5022696;28;21107;-83
2023/01/04 01:34:15;;;;;;;8.98;8.15;;;4.30;1.00;;;;;;5018935;28;20715;-84
2023/01/04 01:36:42;;;;;;;9.00;7.80;;;4.30;1.00;;;;;;5025073;28;20268;-84
2023/01/04 01:39:10;;;;;;;9.10;7.35;;;4.30;1.00;;;;;;5021181;28;20231;-84
2023/01/04 01:41:39;;;;;;;9.10;8.25;;;4.30;1.00;;;;;;5023200;28;20241;-85
2023/01/04 01:44:23;;;;;;;8.35;7.07;;;4.30;1.00;;;;;;5020423;28;20322;-84
2023/01/04 01:46:55;;;;;;;9.20;7.90;;;4.30;1.00;;;;;;5016519;28;20375;-84
2023/01/04 01:49:25;;;;;;;8.80;7.90;;;4.30;1.00;;;;;;5012273;28;20263;-80
2023/01/04 01:51:55;;;;;;;8.27;7.47;;;4.30;1.00;;;;;;5004290;28;21161;-82
2023/01/04 01:54:34;;;;;;;8.45;7.15;;;4.30;1.00;;;;;;5023117;28;20234;-83
2023/01/04 01:57:05;;;;;;;8.90;7.57;;;4.30;1.00;;;;;;5020609;28;20242;-82
2023/01/04 01:59:36;;;;;;;8.25;7.43;;;4.20;1.00;;;;;;5011207;28;20221;-81
2023/01/04 02:02:03;;;;;;;7.35;6.43;;;4.20;1.00;;;;;;5019519;28;20277;-80
2023/01/04 02:04:34;;;;;;;9.25;7.53;;;4.20;1.00;;;;;;5018954;28;20227;-81
2023/01/04 02:07:02;;;;;;;7.70;6.93;;;4.20;1.00;;;;;;5020323;28;20838;-81
2023/01/04 02:09:36;;;;;;;7.97;7.25;;;4.20;1.00;;;;;;5019678;28;20257;-81
2023/01/04 02:12:03;;;;;;;7.82;7.13;;;4.30;1.00;;;;;;5018766;28;20300;-81
2023/01/04 02:14:37;;;;;;;7.40;6.70;;;4.30;1.00;;;;;;5021537;28;20230;-78
2023/01/04 02:17:12;;;;;;;8.32;7.25;;;4.30;1.00;;;;;;5023341;28;20229;-84
2023/01/04 02:20:18;;;;;;;8.98;8.13;;;4.30;1.00;;;;;;5019029;28;20238;-84
2023/01/04 02:23:24;;;;;;;7.47;6.68;;;4.30;1.00;;;;;;5019619;28;20707;-84
2023/01/04 02:26:32;;;;;;;8.50;7.00;;;4.30;1.00;;;;;;5024528;28;20226;-83
2023/01/04 02:29:16;;;;;;;8.15;6.80;;;4.20;1.00;;;;;;5023330;28;20234;-79
2023/01/04 02:31:56;;;;;;;8.32;7.60;;;4.20;1.00;;;;;;5018039;28;21007;-79
2023/01/04 02:34:32;;;;;;;7.45;6.75;;;4.20;1.00;;;;;;5019934;28;20332;-81
2023/01/04 02:37:22;;;;;;;10.45;6.82;;;4.10;1.00;;;;;;5022337;28;20235;-83
2023/01/04 02:39:58;;;;;;;8.70;7.38;;;4.10;1.00;;;;;;5009817;28;20300;-84
2023/01/04 02:45:16;;;;;;;9.52;6.75;;;4.00;1.00;;;;;;5018903;28;20242;-85
2023/01/04 02:50:31;;;;;;;6.88;6.18;;;4.00;1.00;;;;;;5017622;28;20259;-85
2023/01/04 02:52:58;;;;;;;8.38;7.55;;;3.90;1.00;;;;;;5018641;28;20238;-84
2023/01/04 02:55:33;;;;;;;7.10;6.40;;;3.90;1.00;;;;;;5019766;28;20266;-85
2023/01/04 02:58:12;;;;;;;11.43;7.05;;;3.90;1.00;;;;;;5016931;28;20262;-84
2023/01/04 03:06:52;;;;;;;11.18;6.80;;;4.00;1.00;;;;;;5019543;28;20238;-80
2023/01/04 03:09:22;;;;;;;13.13;7.75;;;3.90;1.00;;;;;;5022903;28;20234;-82
2023/01/04 03:14:59;;;;;;;12.40;8.00;;;3.90;1.00;;;;;;5018259;28;20347;-80
2023/01/04 03:17:34;;;;;;;10.82;6.72;;;4.00;1.00;;;;;;5015715;28;20242;-82
2023/01/04 03:20:04;;;;;;;11.10;6.22;;;3.90;1.00;;;;;;5021688;28;20239;-82
2023/01/04 03:36:55;;;;;;;10.60;6.80;;;3.90;1.00;;;;;;5011493;28;20730;-80
2023/01/04 03:48:28;;;;;;;13.50;7.10;;;3.80;1.00;;;;;;5013845;28;20236;-79
2023/01/04 03:51:07;;;;;;;12.23;6.95;;;3.80;1.00;;;;;;5018251;28;20261;-80
2023/01/04 03:53:47;;;;;;;11.07;6.93;;;3.90;1.00;;;;;;5037741;28;20245;-81
2023/01/04 03:56:30;;;;;;;12.48;7.30;;;3.90;1.00;;;;;;5020114;28;20234;-80
2023/01/04 03:58:57;;;;;;;10.75;6.40;;;3.90;1.00;;;;;;5021613;28;20324;-82
2023/01/04 04:01:29;;;;;;;13.18;7.07;;;3.90;1.00;;;;;;5034297;28;20279;-82
2023/01/04 04:09:28;;;;;;;14.52;6.63;;;4.00;1.00;;;;;;5033936;28;20240;-82
2023/01/04 04:11:55;;;;;;;11.48;6.60;;;4.00;1.00;;;;;;5032557;28;20238;-82
2023/01/04 04:14:22;;;;;;;13.35;6.50;;;4.00;1.00;;;;;;5021708;28;21469;-83
2023/01/04 04:16:49;;;;;;;11.52;6.50;;;4.00;1.00;;;;;;5029562;28;21077;-82
2023/01/04 04:19:16;;;;;;;11.15;6.50;;;4.10;1.00;;;;;;5028826;28;20242;-82
2023/01/04 04:21:43;;;;;;;12.30;6.88;;;4.10;1.00;;;;;;5036015;28;20260;-81
2023/01/04 04:24:17;;;;;;;10.80;6.30;;;4.10;1.00;;;;;;5033244;28;20901;-81
2023/01/04 04:26:45;;;;;;;11.52;7.13;;;4.00;1.00;;;;;;5031297;28;20278;-81
2023/01/04 04:29:12;;;;;;;10.88;6.80;;;4.00;1.00;;;;;;5027201;28;20238;-81
2023/01/04 04:31:39;;;;;;;11.25;6.32;;;4.00;1.00;;;;;;5034112;28;20230;-81
2023/01/04 04:34:06;;;;;;;12.52;7.10;;;4.00;1.00;;;;;;5033721;28;20327;-81
2023/01/04 04:36:33;;;;;;;11.45;6.47;;;4.00;1.00;;;;;;5025244;28;20238;-81
2023/01/04 04:39:00;;;;;;;11.65;6.13;;;4.10;1.00;;;;;;5030425;28;20258;-83
2023/01/04 04:41:39;;;;;;;11.77;6.80;;;4.10;1.00;;;;;;5032153;28;20315;-82
2023/01/04 04:44:10;;;;;;;10.05;5.68;;;4.10;1.00;;;;;;5035524;28;20946;-82
2023/01/04 04:46:38;;;;;;;11.88;6.40;;;4.10;1.00;;;;;;5037482;28;20718;-81
2023/01/04 04:49:06;;;;;;;13.85;6.60;;;4.20;1.00;;;;;;5034877;28;20249;-83
2023/01/04 04:51:34;;;;;;;11.15;6.70;;;4.20;1.00;;;;;;5035531;28;20239;-82
2023/01/04 04:54:01;;;;;;;10.38;6.38;;;4.20;1.00;;;;;;5037704;28;20238;-82
2023/01/04 04:56:28;;;;;;;11.18;6.32;;;4.20;1.00;;;;;;5035472;28;20296;-81
2023/01/04 04:59:00;;;;;;;11.25;6.18;;;4.30;1.00;;;;;;5031845;28;20243;-82
2023/01/04 05:01:29;;;;;;;10.73;6.43;;;4.30;1.00;;;;;;5019618;28;21119;-79
2023/01/04 05:04:08;;;;;;;11.30;6.43;;;4.30;1.00;;;;;;5034005;28;20226;-81
2023/01/04 05:06:40;;;;;;;11.32;6.05;;;4.30;1.00;;;;;;5031716;28;20247;-84
2023/01/04 05:09:07;;;;;;;12.18;5.72;;;4.40;1.00;;;;;;5041858;28;20332;-81
2023/01/04 05:14:24;;;;;;;9.57;6.15;;;4.40;1.00;;;;;;5037479;28;20241;-84
2023/01/04 05:16:53;;;;;;;13.85;7.65;;;4.40;1.00;;;;;;5038031;28;20410;-84
2023/01/04 05:19:20;;;;;;;11.60;7.50;;;4.50;1.00;;;;;;5034206;28;20234;-83
2023/01/04 05:21:47;;;;;;;12.88;6.32;;;4.50;1.00;;;;;;5030131;28;20235;-82
2023/01/04 05:24:20;;;;;;;11.38;6.43;;;4.50;1.00;;;;;;5038106;28;20300;-81
2023/01/04 05:26:49;;;;;;;12.32;6.00;;;4.60;1.00;;;;;;5020763;28;20239;-82
2023/01/04 05:32:07;;;;;;;12.05;6.10;;;4.60;1.00;;;;;;5022884;28;20246;-82
2023/01/04 05:34:41;;;;;;;10.55;6.60;;;4.60;1.00;;;;;;5037122;28;20249;-84
2023/01/04 05:37:08;;;;;;;9.30;5.78;;;4.60;1.00;;;;;;5035331;28;20240;-82
2023/01/04 05:39:44;;;;;;;10.90;6.20;;;4.70;1.00;;;;;;5041871;28;20245;-84
2023/01/04 05:42:35;;;;;;;;;;;;;;;;;;;;;
2023/01/04 05:45:11;;;;;;;11.45;5.88;;;4.80;1.00;;;;;;5010131;28;40387;-80
2023/01/04 05:48:01;;;;;;;11.25;6.15;;;4.80;1.00;;;;;;5011552;28;20299;-82
2023/01/04 05:53:23;;;;;;;13.15;6.63;;;4.80;1.00;;;;;;4974286;28;20239;-81
2023/01/04 05:55:53;;;;;;;9.15;5.40;;;4.90;1.00;;;;;;5011746;28;20791;-85
2023/01/04 05:58:21;;;;;;;9.60;5.22;;;4.90;1.00;;;;;;4977425;28;20235;-83
2023/01/04 06:00:51;;;;;;;10.80;6.22;;;4.90;1.00;;;;;;4982883;28;20333;-84
2023/01/04 06:03:50;;;;;;;10.80;5.80;;;4.90;1.00;;;;;;4975444;28;20234;-81
2023/01/04 06:06:32;;;;;;;9.15;5.38;;;5.00;1.00;;;;;;4967984;28;20266;-80
2023/01/04 06:09:02;;;;;;;9.52;5.32;;;5.00;1.00;;;;;;4997778;28;20222;-81
2023/01/04 06:11:31;;;;;;;9.13;5.75;;;5.00;1.00;;;;;;5008692;28;20243;-79
2023/01/04 06:14:02;;;;;;;10.40;5.20;;;5.00;1.00;;;;;;5006383;28;20239;-79
2023/01/04 06:16:39;;;;;;;9.52;5.90;;;5.10;1.00;;;;;;5000967;28;20292;-80
2023/01/04 06:19:29;;;;;;;9.77;5.28;;;5.10;1.00;;;;;;4996051;28;20257;-82
2023/01/04 06:22:20;;;;;;;10.23;5.45;;;5.10;1.00;;;;;;4985655;28;20311;-85
2023/01/04 06:24:49;;;;;;;9.57;4.82;;;5.20;1.00;;;;;;4992517;28;20235;-83
2023/01/04 06:27:26;;;;;;;10.48;4.97;;;5.20;1.00;;;;;;5019178;28;20277;-82
2023/01/04 06:29:53;;;;;;;8.02;4.03;;;5.30;1.00;;;;;;5019079;28;20237;-80
2023/01/04 06:32:25;;;;;;;9.10;4.53;;;5.40;1.00;;;;;;5019695;28;20301;-84
2023/01/04 06:35:02;;;;;;;11.50;4.80;;;5.40;1.00;;;;;;5022549;28;20301;-83
2023/01/04 06:37:32;;;;;;;8.77;5.47;;;5.50;1.00;;;;;;5001315;28;20377;-82
2023/01/04 06:40:02;;;;;;;11.10;5.70;;;5.50;1.00;;;;;;4983382;28;20302;-86
2023/01/04 06:42:50;;;;;;;9.00;4.70;;;5.60;1.00;;;;;;4992981;28;20241;-85
2023/01/04 06:45:22;;;;;;;8.10;4.30;;;5.70;1.00;;;;;;4993865;28;20243;-83
2023/01/04 06:47:49;;;;;;;8.15;4.53;;;5.70;1.00;;;;;;5013837;28;20243;-80
2023/01/04 06:50:29;;;;;;;9.00;4.55;;;5.80;1.00;;;;;;5011314;28;20239;-82
2023/01/04 06:53:01;;;;;;;9.52;4.72;;;5.90;1.00;;;;;;5022821;28;20262;-80
2023/01/04 06:55:29;;;;;;;8.38;3.70;;;6.00;1.00;;;;;;5021330;28;20286;-82
2023/01/04 06:58:00;;;;;;;9.90;3.88;;;6.00;1.00;;;;;;5032310;28;20217;-86
2023/01/04 07:00:27;;;;;;;7.32;3.90;;;6.10;1.00;;;;;;5040279;28;20242;-81
2023/01/04 07:03:02;;;;;;;13.02;5.00;;;6.10;1.00;;;;;;5015709;28;20246;-86
2023/01/04 07:05:30;;;;;;;9.70;4.07;;;6.20;1.00;;;;;;5040814;28;21113;-84
2023/01/04 07:08:02;;;;;;;7.10;3.30;;;6.30;1.00;;;;;;5045785;28;20222;-82
2023/01/04 07:10:31;;;;;;;7.30;3.25;;;6.40;1.00;;;;;;5041428;28;20289;-81
2023/01/04 07:13:02;;;;;;;8.40;3.40;;;6.50;1.00;;;;;;5041850;28;20241;-86
2023/01/04 07:15:29;;;;;;;10.23;4.05;;;6.60;1.00;;;;;;5028362;28;20270;-82
2023/01/04 07:18:01;;;;;;;7.00;3.10;;;6.60;1.00;;;;;;5018881;28;20234;-84
2023/01/04 07:20:43;;;;;;;7.50;3.95;;;6.70;1.00;;;;;;5004252;28;20262;-84
2023/01/04 07:23:13;;;;;;;6.75;3.13;;;6.80;1.00;;;;;;5013451;28;20267;-82
2023/01/04 07:25:42;;;;;;;7.28;2.97;;;6.80;1.00;;;;;;4999221;28;20233;-82
2023/01/04 07:28:09;;;;;;;8.82;3.30;;;6.90;1.00;;;;;;5018732;28;20238;-80
2023/01/04 07:30:41;;;;;;;8.05;3.40;;;7.00;1.00;;;;;;5028448;28;20236;-83
2023/01/04 07:33:08;;;;;;;7.55;3.33;;;7.00;1.00;;;;;;5033248;28;20245;-81
2023/01/04 07:35:41;;;;;;;8.85;4.32;;;6.90;1.00;;;;;;5025662;28;20249;-80
2023/01/04 07:38:09;;;;;;;7.35;3.00;;;6.70;1.00;;;;;;5034870;28;20235;-83
2023/01/04 07:40:41;;;;;;;6.35;3.30;;;6.60;1.00;;;;;;5028028;28;20238;-80
2023/01/04 07:43:10;;;;;;;7.05;2.67;;;6.50;1.00;;;;;;5037654;28;20238;-81
2023/01/04 07:45:38;;;;;;;8.95;3.63;;;6.40;1.00;;;;;;5037300;28;20245;-81
2023/01/04 07:48:09;;;;;;;9.93;3.63;;;6.40;1.00;;;;;;5015039;28;21394;-80
2023/01/04 07:50:38;;;;;;;7.05;3.03;;;6.40;1.00;;;;;;5028630;28;20948;-84
2023/01/04 07:53:11;;;;;;;7.70;3.45;;;6.40;1.00;;;;;;5025435;28;20242;-83
2023/01/04 07:55:38;;;;;;;8.77;3.42;;;6.30;1.00;;;;;;5022284;28;20343;-82
2023/01/04 07:58:07;;;;;;;9.00;3.55;;;6.30;1.00;;;;;;5036629;28;21016;-80
2023/01/04 08:00:38;;;;;;;12.68;4.60;;;6.30;1.00;;;;;;5034006;28;20292;-83
2023/01/04 08:03:11;;;;;;;8.15;3.47;;;6.30;1.00;;;;;;5045059;28;20249;-82
2023/01/04 08:05:42;;;;;;;8.18;3.10;;;6.30;1.00;;;;;;5027306;28;20282;-79
2023/01/04 08:08:11;;;;;;;10.10;3.47;;;6.30;1.00;;;;;;5008833;28;20245;-81
2023/01/04 08:10:38;;;;;;;10.48;3.65;;;6.30;1.00;;;;;;5031070;28;20291;-81
2023/01/04 08:13:10;;;;;;;8.98;4.13;;;6.20;1.00;;;;;;5032565;28;20246;-79
2023/01/04 08:15:38;;;;;;;7.43;2.92;;;6.20;1.00;;;;;;5041048;28;20260;-80
2023/01/04 08:18:06;;;;;;;9.70;3.97;;;6.20;1.00;;;;;;5031429;28;20944;-82
2023/01/04 08:20:33;;;;;;;12.27;4.32;;;6.30;1.00;;;;;;5024945;28;20241;-81
2023/01/04 08:23:01;;;;;;;8.48;3.50;;;6.30;1.00;;;;;;5025203;28;20734;-82
2023/01/04 08:25:28;;;;;;;8.27;3.85;;;6.30;1.00;;;;;;5025758;28;20238;-81
2023/01/04 08:27:59;;;;;;;7.57;3.63;;;6.30;1.00;;;;;;5037156;28;20286;-81
2023/01/04 08:30:28;;;;;;;8.93;3.60;;;6.30;1.00;;;;;;5036649;28;20240;-83
2023/01/04 08:32:59;;;;;;;8.50;3.75;;;6.30;1.00;;;;;;5039177;28;20324;-81
2023/01/04 08:35:26;;;;;;;9.70;4.35;;;6.40;1.00;;;;;;5031218;28;20244;-83
2023/01/04 08:37:53;;;;;;;11.00;4.30;;;6.30;1.00;;;;;;5041243;28;20266;-84
2023/01/04 08:40:22;;;;;;;10.82;4.05;;;6.40;1.00;;;;;;5037336;28;20230;-82
2023/01/04 08:42:49;;;;;;;8.85;3.65;;;6.40;1.00;;;;;;5040077;28;21111;-81
2023/01/04 08:45:20;;;;;;;9.98;3.80;;;6.40;1.00;;;;;;5035797;28;20249;-82
2023/01/04 08:47:48;;;;;;;9.40;3.70;;;6.50;1.00;;;;;;5037467;28;20239;-82
2023/01/04 08:50:21;;;;;;;9.93;4.15;;;6.50;1.00;;;;;;5041030;28;20226;-81
2023/01/04 08:52:48;;;;;;;15.40;4.70;;;6.50;1.00;;;;;;5035614;28;21008;-84
2023/01/04 08:55:20;;;;;;;8.27;3.60;;;6.60;1.00;;;;;;5039285;28;20234;-82
2023/01/04 08:57:48;;;;;;;11.63;4.10;;;6.50;1.00;;;;;;5032003;28;20231;-81
2023/01/04 09:00:25;;;;;;;9.75;4.65;;;6.60;1.00;;;;;;5020303;28;20295;-80
2023/01/04 09:02:52;;;;;;;8.50;3.80;;;6.50;1.00;;;;;;5016035;28;20320;-80
2023/01/04 09:05:24;;;;;;;8.55;4.22;;;6.60;1.00;;;;;;5021148;28;20251;-83
2023/01/04 09:07:52;;;;;;;10.75;4.30;;;6.60;1.00;;;;;;5016661;28;20258;-80
2023/01/04 09:10:21;;;;;;;11.95;4.50;;;6.60;1.00;;;;;;5020228;28;20219;-81
2023/01/04 09:12:58;;;;;;;9.75;4.40;;;6.60;1.00;;;;;;5023173;28;20305;-80
2023/01/04 09:15:28;;;;;;;8.35;3.33;;;6.60;1.00;;;;;;5023174;28;20247;-82
2023/01/04 09:18:00;;;;;;;10.95;4.72;;;6.60;1.00;;;;;;5029130;28;20282;-83
2023/01/04 09:20:30;;;;;;;10.02;4.45;;;6.60;1.00;;;;;;4989695;28;20239;-80
2023/01/04 09:23:04;;;;;;;10.32;4.65;;;6.70;1.00;;;;;;5000941;28;20249;-80
2023/01/04 09:25:31;;;;;;;9.00;4.30;;;6.70;1.00;;;;;;5008462;28;20247;-79
2023/01/04 09:28:03;;;;;;;12.98;5.15;;;6.70;1.00;;;;;;5012234;28;20226;-81
2023/01/04 09:30:30;;;;;;;13.27;5.15;;;6.70;1.00;;;;;;5011936;28;20239;-82
2023/01/04 09:33:06;;;;;;;9.55;4.10;;;6.80;1.00;;;;;;5013445;28;20261;-79
2023/01/04 09:35:34;;;;;;;8.93;4.63;;;6.80;1.00;;;;;;5009502;28;20222;-84
2023/01/04 09:38:04;;;;;;;8.82;4.25;;;6.80;1.00;;;;;;4990003;28;20234;-84
2023/01/04 09:43:54;;;;;;;10.13;4.93;;;6.80;1.00;;;;;;4997549;28;20314;-85
2023/01/04 09:46:42;;;;;;;12.75;5.95;;;6.80;1.00;;;;;;4978200;28;20235;-83
2023/01/04 09:52:33;;;;;;;9.32;4.68;;;6.90;1.00;;;;;;4987549;28;20247;-83
2023/01/04 09:55:12;;;;;;;11.15;5.38;;;6.90;1.00;;;;;;5000197;28;20319;-80
2023/01/04 09:57:50;;;;;;;9.57;4.97;;;6.90;1.00;;;;;;4996085;28;20241;-83
2023/01/04 10:03:34;;;;;;;9.98;4.88;;;6.90;1.00;;;;;;4995281;28;20242;-84
2023/01/04 10:06:03;;;;;;;8.77;4.85;;;6.90;1.00;;;;;;5019359;28;20242;-83
2023/01/04 10:08:32;;;;;;;9.45;5.15;;;6.90;1.00;;;;;;5012914;28;20243;-86
2023/01/04 10:11:28;;;;;;;12.35;5.03;;;6.90;1.00;;;;;;5014677;28;20226;-83
2023/01/04 10:14:30;;;;;;;13.30;5.50;;;7.00;1.00;;;;;;5040010;28;21102;-84
2023/01/04 10:17:24;;;;;;;10.75;5.35;;;7.00;1.00;;;;;;5021765;28;20234;-84
2023/01/04 10:20:29;;;;;;;11.23;6.47;;;7.00;1.00;;;;;;5008662;28;20243;-82
2023/01/04 10:23:14;;;;;;;10.75;5.38;;;7.00;1.00;;;;;;5021082;28;20277;-84
2023/01/04 10:25:51;;;;;;;8.45;4.60;;;7.00;1.00;;;;;;5029135;28;20234;-86
2023/01/04 10:28:41;;;;;;;9.25;4.80;;;7.00;1.00;;;;;;4992057;28;20327;-82
2023/01/04 10:31:21;;;;;;;10.95;5.97;;;7.00;1.00;;;;;;5024486;28;20238;-83
2023/01/04 10:34:04;;;;;;;11.63;5.75;;;7.00;1.00;;;;;;5026260;28;20241;-82
2023/01/04 10:36:31;;;;;;;10.82;5.53;;;7.10;1.00;;;;;;5035263;28;20293;-83
2023/01/04 10:41:51;;;;;;;8.80;5.00;;;7.10;1.00;;;;;;5027697;28;20230;-85
2023/01/04 10:47:41;;;;;;;9.65;4.97;;;7.10;1.00;;;;;;4954645;28;20243;-86
2023/01/04 10:50:40;;;;;;;9.80;4.93;;;7.10;1.00;;;;;;4952926;28;20229;-82
2023/01/04 10:53:33;;;;;;;8.88;4.90;;;7.20;1.00;;;;;;4975091;28;20227;-84
2023/01/04 10:56:12;;;;;;;10.45;5.00;;;7.10;1.00;;;;;;4949945;28;21043;-83
2023/01/04 10:59:10;;;;;;;9.43;5.40;;;7.10;1.00;;;;;;4955660;28;21043;-85
2023/01/04 11:01:44;;;;;;;10.40;4.70;;;7.20;1.00;;;;;;4957556;28;20267;-82
2023/01/04 11:04:20;;;;;;;11.35;5.80;;;7.20;1.00;;;;;;4963878;28;20245;-84
2023/01/04 11:07:02;;;;;;;10.25;4.60;;;7.20;1.00;;;;;;4961760;28;20225;-83
2023/01/04 11:09:51;;;;;;;9.18;4.60;;;7.20;1.00;;;;;;5009753;28;20379;-85
2023/01/04 11:12:24;;;;;;;10.43;4.57;;;7.20;1.00;;;;;;5019804;28;20254;-85
2023/01/04 11:15:14;;;;;;;;;;;;;;;;;;;;;
2023/01/04 11:17:44;;;;;;;11.77;5.00;;;7.20;1.00;;;;;;4971001;28;50931;-86
2023/01/04 11:20:12;;;;;;;8.35;4.50;;;7.30;1.00;;;;;;5025086;28;20211;-84
2023/01/04 11:23:00;;;;;;;9.35;4.53;;;7.30;1.00;;;;;;5024909;28;20320;-85
2023/01/04 11:25:53;;;;;;;11.60;5.65;;;7.30;1.00;;;;;;5009657;28;20237;-84
2023/01/04 11:28:32;;;;;;;9.18;4.43;;;7.40;1.00;;;;;;5013044;28;20253;-84
2023/01/04 11:31:13;;;;;;;10.38;5.00;;;7.30;1.00;;;;;;5014974;28;20350;-83
2023/01/04 11:33:57;;;;;;;9.60;4.35;;;7.40;1.00;;;;;;5027750;28;20243;-83
2023/01/04 11:36:41;;;;;;;9.45;4.60;;;7.30;1.00;;;;;;5041355;28;20235;-86
2023/01/04 11:39:30;;;;;;;11.32;4.22;;;7.40;1.00;;;;;;5041826;28;20208;-85
2023/01/04 11:42:10;;;;;;;10.13;4.40;;;7.40;1.00;;;;;;5043289;28;20238;-85
2023/01/04 11:45:04;;;;;;;9.65;4.28;;;7.40;1.00;;;;;;5029871;28;21578;-84
2023/01/04 11:47:32;;;;;;;9.13;5.00;;;7.50;1.00;;;;;;5018565;28;20261;-86
2023/01/04 11:52:55;;;;;;;10.65;5.28;;;7.60;1.00;;;;;;5007827;28;20254;-84
2023/01/04 11:55:33;;;;;;;10.13;4.45;;;7.60;1.00;;;;;;5006741;28;20244;-85
2023/01/04 11:58:16;;;;;;;8.60;4.25;;;7.60;1.00;;;;;;5040268;28;20235;-84
2023/01/04 12:00:54;;;;;;;8.25;4.20;;;7.60;1.00;;;;;;4980251;28;20779;-83
2023/01/04 12:06:35;;;;;;;8.93;3.85;;;7.70;1.00;;;;;;5012558;28;20245;-81
2023/01/04 12:09:12;;;;;;;9.25;4.38;;;7.70;1.00;;;;;;5016186;28;20231;-84
2023/01/04 12:11:42;;;;;;;10.65;5.07;;;7.70;1.00;;;;;;5035922;28;20218;-81
2023/01/04 12:14:23;;;;;;;10.15;4.75;;;7.80;1.00;;;;;;5042829;28;20235;-80
2023/01/04 12:17:04;;;;;;;9.25;4.32;;;7.80;1.00;;;;;;5032411;28;20273;-86
2023/01/04 12:19:32;;;;;;;12.40;4.50;;;7.80;1.00;;;;;;5045091;28;20351;-83
2023/01/04 12:22:23;;;;;;;9.35;4.50;;;7.90;1.00;;;;;;5038384;28;21003;-84
2023/01/04 12:24:54;;;;;;;8.40;4.03;;;7.80;1.00;;;;;;5032922;28;20245;-84
2023/01/04 12:27:24;;;;;;;9.50;4.15;;;7.90;1.00;;;;;;5028205;28;20255;-83
2023/01/04 12:30:04;;;;;;;8.32;3.60;;;7.90;1.00;;;;;;5016951;28;20242;-83
2023/01/04 12:32:51;;;;;;;8.40;4.40;;;7.90;1.00;;;;;;4999272;28;20339;-85
2023/01/04 12:36:05;;;;;;;7.80;4.07;;;8.00;1.00;;;;;;5000935;28;20253;-83
2023/01/04 12:39:22;;;;;;;7.55;3.65;;;8.00;1.00;;;;;;5037370;28;20987;-82
2023/01/04 12:42:25;;;;;;;8.38;3.80;;;8.00;1.00;;;;;;5023410;28;20287;-89
2023/01/04 12:45:25;;;;;;;7.88;3.38;;;8.00;1.00;;;;;;5035508;28;20780;-82
2023/01/04 12:51:23;;;;;;;11.98;4.30;;;8.00;1.00;;;;;;5036755;28;20231;-84
2023/01/04 12:53:53;;;;;;;7.72;3.05;;;8.00;1.00;;;;;;5003436;28;20230;-84
2023/01/04 12:56:25;;;;;;;7.05;3.30;;;8.00;1.00;;;;;;5040379;28;20235;-83
2023/01/04 12:59:11;;;;;;;7.83;3.20;;;8.00;1.00;;;;;;5021138;28;20237;-82
2023/01/04 13:02:14;;;;;;;13.82;3.60;;;8.00;1.00;;;;;;4989720;28;20435;-81
2023/01/04 13:04:42;;;;;;;8.80;3.30;;;8.00;1.00;;;;;;5009006;28;20214;-87
2023/01/04 13:07:23;;;;;;;10.98;3.70;;;8.00;1.00;;;;;;5013665;28;20240;-86
2023/01/04 13:10:01;;;;;;;9.55;3.55;;;8.00;1.00;;;;;;5018739;28;20955;-85
2023/01/04 13:12:56;;;;;;;9.48;3.80;;;8.00;1.00;;;;;;5014424;28;20251;-83
2023/01/04 13:15:32;;;;;;;11.57;6.57;;;8.00;1.00;;;;;;5011659;28;20315;-83
2023/01/04 13:18:12;;;;;;;8.23;4.30;;;8.00;1.00;;;;;;4995696;28;20704;-80
2023/01/04 13:20:40;;;;;;;8.15;3.50;;;8.00;1.00;;;;;;4999031;28;20878;-78
2023/01/04 13:23:13;;;;;;;11.95;6.05;;;8.00;1.00;;;;;;4984007;28;20365;-81
2023/01/04 13:26:04;;;;;;;7.88;3.90;;;8.00;1.00;;;;;;4986774;28;20254;-83
2023/01/04 13:28:31;;;;;;;8.98;4.30;;;8.00;1.00;;;;;;5007613;28;20245;-82
2023/01/04 13:31:00;;;;;;;9.80;4.43;;;8.00;1.00;;;;;;5012786;28;20253;-83
2023/01/04 13:33:33;;;;;;;7.68;4.05;;;8.00;1.00;;;;;;5004697;28;20268;-86
2023/01/04 13:36:05;;;;;;;8.30;3.60;;;8.00;1.00;;;;;;5016326;28;20237;-84
2023/01/04 13:41:23;;;;;;;8.10;3.88;;;8.00;1.00;;;;;;5011299;28;20291;-81
2023/01/04 13:44:02;;;;;;;9.10;4.38;;;8.00;1.00;;;;;;5011543;28;20247;-80
2023/01/04 13:46:32;;;;;;;8.30;4.00;;;8.00;1.00;;;;;;5002105;28;20318;-81
2023/01/04 13:49:02;;;;;;;8.70;4.13;;;8.10;1.00;;;;;;5007850;28;20258;-81
2023/01/04 13:51:35;;;;;;;9.68;4.40;;;8.10;1.00;;;;;;5008273;28;20462;-81
2023/01/04 13:54:05;;;;;;;7.82;3.90;;;8.10;1.00;;;;;;5008076;28;21179;-82
2023/01/04 13:56:33;;;;;;;7.82;4.15;;;8.10;1.00;;;;;;5012362;28;20326;-80
2023/01/04 13:59:01;;;;;;;7.93;3.70;;;8.10;1.00;;;;;;5032879;28;20678;-80
2023/01/04 14:01:32;;;;;;;9.53;4.57;;;8.10;1.00;;;;;;5026568;28;21262;-81
2023/01/04 14:04:05;;;;;;;8.98;4.50;;;8.10;1.00;;;;;;5029440;28;20483;-81
2023/01/04 14:06:35;;;;;;;9.02;3.95;;;8.10;1.00;;;;;;5025645;28;20251;-81
2023/01/04 14:09:09;;;;;;;8.33;4.00;;;8.10;1.00;;;;;;5027182;28;20245;-81
2023/01/04 14:12:00;;;;;;;8.05;3.85;;;8.20;1.00;;;;;;5025613;28;20468;-82
2023/01/04 14:14:42;;;;;;;8.10;4.00;;;8.20;1.00;;;;;;5034040;28;20730;-80
2023/01/04 14:17:28;;;;;;;9.33;4.30;;;8.20;1.00;;;;;;5035438;28;20238;-80
2023/01/04 14:20:26;;;;;;;9.33;4.10;;;8.20;1.00;;;;;;5034442;28;20424;-81
2023/01/04 14:22:55;;;;;;;7.90;3.88;;;8.20;1.00;;;;;;5015331;28;20460;-82
2023/01/04 14:25:54;;;;;;;8.05;4.57;;;8.30;1.00;;;;;;5031415;28;20249;-81
2023/01/04 14:28:41;;;;;;;9.00;3.93;;;8.30;1.00;;;;;;5028748;28;20248;-81
2023/01/04 14:31:25;;;;;;;8.60;4.03;;;8.30;1.00;;;;;;5033069;28;20418;-82
2023/01/04 14:33:54;;;;;;;9.20;4.03;;;8.30;1.00;;;;;;5035455;28;20252;-82
2023/01/04 14:36:26;;;;;;;8.73;4.40;;;8.30;1.00;;;;;;5032013;28;20241;-81
2023/01/04 14:39:15;;;;;;;7.07;3.75;;;8.40;1.00;;;;;;5028826;28;20249;-82
2023/01/04 14:41:56;;;;;;;7.72;3.35;;;8.40;1.00;;;;;;5022526;28;20330;-81
2023/01/04 14:44:24;;;;;;;7.53;3.67;;;8.40;1.00;;;;;;5023627;28;20257;-81
2023/01/04 14:47:14;;;;;;;8.98;4.20;;;8.40;1.00;;;;;;5033939;28;20246;-82
2023/01/04 14:50:06;;;;;;;;;;;;;;;;;;;;;
2023/01/04 14:52:35;;;;;;;9.27;4.33;;;8.40;1.00;;;;;;4992948;28;50459;-84
2023/01/04 14:55:23;;;;;;;8.80;4.40;;;8.40;1.00;;;;;;5038591;28;20452;-83
2023/01/04 14:58:15;;;;;;;7.67;3.33;;;8.50;1.00;;;;;;5047420;28;20444;-82
2023/01/04 15:00:43;;;;;;;7.47;3.17;;;8.50;1.00;;;;;;5018795;28;20465;-80
2023/01/04 15:03:25;;;;;;;8.40;3.80;;;8.50;1.00;;;;;;5012392;28;20463;-81
2023/01/04 15:05:55;;;;;;;7.75;3.40;;;8.50;1.00;;;;;;5026103;28;20469;-82